You are listening to:
YSSY Director (Both) - Sydney, New South Wales, Australia

YSSY 251700Z 21022KT 9999 SCT012 BKN018 BKN025 14/13 Q1020 TEMPO 1700/2000 3000 SHRA FEW005 BKN010 FM1700 MOD TURB BLW 5000FT

If stream doesn't start automatically press the play button
If stream stops then reload player then press play